Time;durP1;ratioP1;P1;durP2;ratioP2;P2;SDS_P1;SDS_P2;PMS_P1;PMS_P2;Temp;Humidity;BMP_temperature;BMP_pressure;BME280_temperature;BME280_humidity;BME280_pressure;Samples;Min_cycle;Max_cycle;Signal;HPM_P1;HPM_P2
2024/01/21 00:01:34;;;;;;;32.47;11.95;;;;;;;;;;5017570;28;20025;-52
2024/01/21 00:04:01;;;;;;;31.63;11.30;;;;;;;;;;5024529;28;20025;-54
2024/01/21 00:06:27;;;;;;;27.85;11.07;;;;;;;;;;5024428;28;20030;-50
2024/01/21 00:08:54;;;;;;;27.55;10.57;;;;;;;;;;5024330;28;20021;-52
2024/01/21 00:11:20;;;;;;;40.78;11.75;;;;;;;;;;5022435;28;20072;-51
2024/01/21 00:13:47;;;;;;;36.25;10.68;;;;;;;;;;5024788;28;20238;-48
2024/01/21 00:16:14;;;;;;;30.48;10.30;;;;;;;;;;5024227;28;20052;-47
2024/01/21 00:18:40;;;;;;;16.67;8.85;;;;;;;;;;5024772;28;20021;-49
2024/01/21 00:21:07;;;;;;;18.75;9.15;;;;;;;;;;5024370;28;20030;-45
2024/01/21 00:23:33;;;;;;;55.80;11.90;;;;;;;;;;5020384;28;20056;-52
2024/01/21 00:26:00;;;;;;;26.30;9.43;;;;;;;;;;5022109;28;20029;-53
2024/01/21 00:28:27;;;;;;;20.27;9.00;;;;;;;;;;5022241;28;20228;-55
2024/01/21 00:30:54;;;;;;;17.83;8.80;;;;;;;;;;5022345;28;20088;-53
2024/01/21 00:33:21;;;;;;;16.30;8.40;;;;;;;;;;5022091;28;20171;-49
2024/01/21 00:35:48;;;;;;;30.08;9.65;;;;;;;;;;5023375;28;20101;-46
2024/01/21 00:38:14;;;;;;;70.25;11.80;;;;;;;;;;5024096;28;20045;-52
2024/01/21 00:40:41;;;;;;;23.90;9.18;;;;;;;;;;5027875;28;20026;-43
2024/01/21 00:43:08;;;;;;;16.83;8.23;;;;;;;;;;5026135;28;20036;-43
2024/01/21 00:45:34;;;;;;;16.25;7.65;;;;;;;;;;5025527;28;20124;-42
2024/01/21 00:48:01;;;;;;;19.00;8.55;;;;;;;;;;5027340;28;20021;-47
2024/01/21 00:50:27;;;;;;;19.27;8.23;;;;;;;;;;5027771;28;20032;-47
2024/01/21 00:52:54;;;;;;;22.95;9.38;;;;;;;;;;5027215;28;20084;-43
2024/01/21 00:55:20;;;;;;;63.88;13.50;;;;;;;;;;5027473;28;20032;-49
2024/01/21 00:57:47;;;;;;;26.92;10.10;;;;;;;;;;5027167;28;20056;-44
2024/01/21 01:00:14;;;;;;;30.23;10.27;;;;;;;;;;5027723;28;20030;-51
2024/01/21 01:02:41;;;;;;;32.65;9.30;;;;;;;;;;5027153;28;20259;-51
2024/01/21 01:05:08;;;;;;;26.77;9.38;;;;;;;;;;5025514;28;20032;-51
2024/01/21 01:07:34;;;;;;;21.02;8.68;;;;;;;;;;5027198;28;20022;-49
2024/01/21 01:10:01;;;;;;;16.63;7.63;;;;;;;;;;5027480;28;20037;-49
2024/01/21 01:12:28;;;;;;;14.35;8.05;;;;;;;;;;5027203;28;20249;-45
2024/01/21 01:14:54;;;;;;;15.93;8.35;;;;;;;;;;5024844;28;20084;-51
2024/01/21 01:17:21;;;;;;;23.33;8.10;;;;;;;;;;5026702;28;20085;-48
2024/01/21 01:19:47;;;;;;;55.10;10.85;;;;;;;;;;5024385;28;20022;-48
2024/01/21 01:22:14;;;;;;;22.50;7.47;;;;;;;;;;5024215;28;20033;-56
2024/01/21 01:24:41;;;;;;;18.30;7.25;;;;;;;;;;5027120;28;20089;-51
2024/01/21 01:27:10;;;;;;;28.13;8.63;;;;;;;;;;5025084;28;20043;-46
2024/01/21 01:29:38;;;;;;;21.38;7.68;;;;;;;;;;5026035;28;20021;-47
2024/01/21 01:32:05;;;;;;;45.65;8.85;;;;;;;;;;5020538;28;20049;-51
2024/01/21 01:34:32;;;;;;;39.65;9.00;;;;;;;;;;5027091;28;20017;-47
2024/01/21 01:36:58;;;;;;;60.85;10.65;;;;;;;;;;5025171;28;20197;-55
2024/01/21 01:39:25;;;;;;;111.35;15.15;;;;;;;;;;5026876;28;20198;-56
2024/01/21 01:41:51;;;;;;;66.30;11.30;;;;;;;;;;5024146;28;20029;-55
2024/01/21 01:44:18;;;;;;;63.58;11.85;;;;;;;;;;5025217;28;20037;-58
2024/01/21 01:46:44;;;;;;;90.07;13.90;;;;;;;;;;5024567;28;20333;-55
2024/01/21 01:49:11;;;;;;;62.85;12.48;;;;;;;;;;5026556;28;20017;-56
2024/01/21 01:51:38;;;;;;;38.25;11.48;;;;;;;;;;5023990;28;20037;-61
2024/01/21 01:54:05;;;;;;;49.05;12.55;;;;;;;;;;5024824;28;20034;-57
2024/01/21 01:56:32;;;;;;;33.28;13.40;;;;;;;;;;5026584;28;20025;-54
2024/01/21 01:59:06;;;;;;;28.73;14.07;;;;;;;;;;5026642;28;20021;-56
2024/01/21 02:01:33;;;;;;;27.10;14.15;;;;;;;;;;5024142;28;20026;-54
2024/01/21 02:04:00;;;;;;;23.48;14.15;;;;;;;;;;5026273;28;20022;-58
2024/01/21 02:06:27;;;;;;;22.48;13.13;;;;;;;;;;5020484;28;20030;-56
2024/01/21 02:08:53;;;;;;;20.95;11.73;;;;;;;;;;5020296;28;20037;-58
2024/01/21 02:11:20;;;;;;;18.10;10.90;;;;;;;;;;5020657;28;20038;-54
2024/01/21 02:13:46;;;;;;;18.48;9.23;;;;;;;;;;5013685;28;20026;-54
2024/01/21 02:16:16;;;;;;;18.95;9.00;;;;;;;;;;5007712;28;20026;-57
2024/01/21 02:18:47;;;;;;;16.92;8.70;;;;;;;;;;5026689;28;20017;-56
2024/01/21 02:21:14;;;;;;;23.30;8.32;;;;;;;;;;5026382;28;20036;-56
2024/01/21 02:23:44;;;;;;;18.45;8.27;;;;;;;;;;5026410;28;20233;-56
2024/01/21 02:26:10;;;;;;;23.65;7.75;;;;;;;;;;5026209;28;20028;-55
2024/01/21 02:28:37;;;;;;;11.75;6.78;;;;;;;;;;5025168;28;20029;-54
2024/01/21 02:31:03;;;;;;;18.05;6.93;;;;;;;;;;5023595;28;20033;-60
2024/01/21 02:33:30;;;;;;;13.43;6.82;;;;;;;;;;5025704;28;20028;-58
2024/01/21 02:35:57;;;;;;;12.80;6.53;;;;;;;;;;5025649;28;20045;-56
2024/01/21 02:38:23;;;;;;;16.60;6.95;;;;;;;;;;5023093;28;20022;-55
2024/01/21 02:40:52;;;;;;;13.10;6.65;;;;;;;;;;5024815;28;20022;-58
2024/01/21 02:43:19;;;;;;;12.45;6.05;;;;;;;;;;5024910;28;20104;-56
2024/01/21 02:45:46;;;;;;;12.15;6.10;;;;;;;;;;5025539;28;20026;-57
2024/01/21 02:48:12;;;;;;;11.48;5.97;;;;;;;;;;5025469;28;20033;-55
2024/01/21 02:50:39;;;;;;;11.25;6.00;;;;;;;;;;5025727;28;20151;-60
2024/01/21 02:53:05;;;;;;;12.32;6.40;;;;;;;;;;5025308;28;20022;-52
2024/01/21 02:55:32;;;;;;;10.90;6.85;;;;;;;;;;5025680;28;20017;-57
2024/01/21 02:57:59;;;;;;;13.20;7.28;;;;;;;;;;5025359;28;20029;-56
2024/01/21 03:00:25;;;;;;;13.05;6.70;;;;;;;;;;5023102;28;20202;-57
2024/01/21 03:02:52;;;;;;;10.48;6.35;;;;;;;;;;5024829;28;20376;-54
2024/01/21 03:05:19;;;;;;;13.75;6.10;;;;;;;;;;5025316;28;20216;-55
2024/01/21 03:07:46;;;;;;;12.98;6.93;;;;;;;;;;5024851;28;20060;-56
2024/01/21 03:10:21;;;;;;;13.00;5.68;;;;;;;;;;5023774;28;20064;-55
2024/01/21 03:12:48;;;;;;;15.77;7.20;;;;;;;;;;5023495;28;20019;-55
2024/01/21 03:15:15;;;;;;;14.20;6.47;;;;;;;;;;5024565;28;20027;-58
2024/01/21 03:17:41;;;;;;;11.10;6.25;;;;;;;;;;5022004;28;20081;-59
2024/01/21 03:20:08;;;;;;;12.25;6.55;;;;;;;;;;5025144;28;20034;-56
2024/01/21 03:22:37;;;;;;;9.75;6.47;;;;;;;;;;5024541;28;20033;-57
2024/01/21 03:25:04;;;;;;;11.10;6.78;;;;;;;;;;5025135;28;20100;-55
2024/01/21 03:27:31;;;;;;;8.93;6.57;;;;;;;;;;5024785;28;20081;-57
2024/01/21 03:29:57;;;;;;;13.30;6.72;;;;;;;;;;5023376;28;20030;-56
2024/01/21 03:32:24;;;;;;;11.32;8.00;;;;;;;;;;5024771;28;20029;-56
2024/01/21 03:34:51;;;;;;;10.52;7.60;;;;;;;;;;5024811;28;20040;-54
2024/01/21 03:37:18;;;;;;;11.80;8.57;;;;;;;;;;5024073;28;20225;-54
2024/01/21 03:39:44;;;;;;;10.30;8.73;;;;;;;;;;5024642;28;20033;-60
2024/01/21 03:42:11;;;;;;;14.13;8.85;;;;;;;;;;5024480;28;20022;-58
2024/01/21 03:44:38;;;;;;;11.07;8.38;;;;;;;;;;5024706;28;20089;-57
2024/01/21 03:47:04;;;;;;;10.70;7.65;;;;;;;;;;5019320;28;20373;-57
2024/01/21 03:49:31;;;;;;;11.45;8.20;;;;;;;;;;5017288;28;20026;-57
2024/01/21 03:51:58;;;;;;;9.68;7.40;;;;;;;;;;5024180;28;20081;-62
2024/01/21 03:54:24;;;;;;;9.18;7.78;;;;;;;;;;5024424;28;20022;-59
2024/01/21 03:56:51;;;;;;;10.40;7.90;;;;;;;;;;5024199;28;20041;-54
2024/01/21 03:59:17;;;;;;;10.65;7.78;;;;;;;;;;5024102;28;20029;-56
2024/01/21 04:01:45;;;;;;;9.07;7.50;;;;;;;;;;5024153;28;20029;-57
2024/01/21 04:04:11;;;;;;;9.68;7.55;;;;;;;;;;5024180;28;20067;-55
2024/01/21 04:06:41;;;;;;;8.52;7.63;;;;;;;;;;5023917;28;20054;-55
2024/01/21 04:09:08;;;;;;;11.15;7.75;;;;;;;;;;5024242;28;20034;-57
2024/01/21 04:11:34;;;;;;;10.68;7.97;;;;;;;;;;5023910;28;20080;-57
2024/01/21 04:14:01;;;;;;;10.68;8.05;;;;;;;;;;5020926;28;20026;-61
2024/01/21 04:16:28;;;;;;;10.50;7.85;;;;;;;;;;5018269;28;20024;-57
2024/01/21 04:18:55;;;;;;;10.05;8.20;;;;;;;;;;5022357;28;20024;-52
2024/01/21 04:21:24;;;;;;;9.68;7.85;;;;;;;;;;5024660;28;20029;-57
2024/01/21 04:23:51;;;;;;;11.77;8.90;;;;;;;;;;5003722;28;20085;-55
2024/01/21 04:26:30;;;;;;;11.00;8.43;;;;;;;;;;5004629;28;20034;-58
2024/01/21 04:28:57;;;;;;;10.93;8.52;;;;;;;;;;5003731;28;20030;-55
2024/01/21 04:31:23;;;;;;;14.80;9.18;;;;;;;;;;5008795;28;20106;-59
2024/01/21 04:33:50;;;;;;;12.35;9.20;;;;;;;;;;5023577;28;20020;-58
2024/01/21 04:36:22;;;;;;;11.68;9.05;;;;;;;;;;5021407;28;20033;-57
2024/01/21 04:38:48;;;;;;;;;;;;;;;;;;5022220;28;20045;-57
2024/01/21 04:41:15;;;;;;;10.85;9.00;;;;;;;;;;5022425;28;19905;-56
2024/01/21 04:43:44;;;;;;;10.32;9.23;;;;;;;;;;5023519;28;20022;-55
2024/01/21 04:46:10;;;;;;;13.63;9.43;;;;;;;;;;5022087;28;20268;-59
2024/01/21 04:48:37;;;;;;;11.45;9.60;;;;;;;;;;5023537;28;20030;-55
2024/01/21 04:51:04;;;;;;;11.35;9.82;;;;;;;;;;5022449;28;20028;-55
2024/01/21 04:53:30;;;;;;;12.25;10.32;;;;;;;;;;5023560;28;20361;-59
2024/01/21 04:55:57;;;;;;;11.65;9.95;;;;;;;;;;5022400;28;20018;-54
2024/01/21 04:58:23;;;;;;;15.07;11.10;;;;;;;;;;5019024;28;20330;-56
2024/01/21 05:00:50;;;;;;;13.95;10.88;;;;;;;;;;5023403;28;20345;-53
2024/01/21 05:03:16;;;;;;;15.98;11.32;;;;;;;;;;5022055;28;20253;-56
2024/01/21 05:05:43;;;;;;;14.65;10.77;;;;;;;;;;5019635;28;20260;-54
2024/01/21 05:08:10;;;;;;;17.75;11.50;;;;;;;;;;5021625;28;20021;-54
2024/01/21 05:10:36;;;;;;;17.08;11.75;;;;;;;;;;5021480;28;20033;-59
2024/01/21 05:13:03;;;;;;;15.93;11.68;;;;;;;;;;5024295;28;20072;-54
2024/01/21 05:15:30;;;;;;;15.38;11.73;;;;;;;;;;5021614;28;20324;-53
2024/01/21 05:17:56;;;;;;;14.10;11.50;;;;;;;;;;5020038;28;20332;-54
2024/01/21 05:20:23;;;;;;;14.77;11.52;;;;;;;;;;5021404;28;20210;-55
2024/01/21 05:22:54;;;;;;;15.00;11.90;;;;;;;;;;5023376;28;20026;-55
2024/01/21 05:25:21;;;;;;;16.02;11.70;;;;;;;;;;5025832;28;20224;-55
2024/01/21 05:27:47;;;;;;;14.60;11.80;;;;;;;;;;5027535;28;20214;-56
2024/01/21 05:30:15;;;;;;;14.18;11.82;;;;;;;;;;5027006;28;20026;-57
2024/01/21 05:32:46;;;;;;;12.63;11.32;;;;;;;;;;5027394;28;20084;-57
2024/01/21 05:35:13;;;;;;;13.98;12.27;;;;;;;;;;5025743;28;20022;-55
2024/01/21 05:37:39;;;;;;;14.93;12.40;;;;;;;;;;5027163;28;20317;-55
2024/01/21 05:40:06;;;;;;;17.83;11.95;;;;;;;;;;5027026;28;20314;-57
2024/01/21 05:42:33;;;;;;;16.50;11.25;;;;;;;;;;5027320;28;20310;-54
2024/01/21 05:44:59;;;;;;;18.20;11.82;;;;;;;;;;5027004;28;20245;-54
2024/01/21 05:47:26;;;;;;;14.23;11.70;;;;;;;;;;5027242;28;20048;-57
2024/01/21 05:49:53;;;;;;;13.48;11.20;;;;;;;;;;5026614;28;20030;-55
2024/01/21 05:52:19;;;;;;;14.55;11.48;;;;;;;;;;5026049;28;20033;-56
2024/01/21 05:54:46;;;;;;;13.55;11.32;;;;;;;;;;5026649;28;20022;-56
2024/01/21 05:57:12;;;;;;;13.38;11.40;;;;;;;;;;5026881;28;20045;-53
2024/01/21 05:59:39;;;;;;;14.10;11.20;;;;;;;;;;5026767;28;20381;-57
2024/01/21 06:02:07;;;;;;;13.57;11.15;;;;;;;;;;5026478;28;20445;-56
2024/01/21 06:04:34;;;;;;;15.25;11.40;;;;;;;;;;5026926;28;20044;-56
2024/01/21 06:07:01;;;;;;;13.40;10.45;;;;;;;;;;5023304;28;20049;-58
2024/01/21 06:09:27;;;;;;;13.13;10.73;;;;;;;;;;5026710;28;20022;-55
2024/01/21 06:11:54;;;;;;;13.43;10.18;;;;;;;;;;5026576;28;20217;-54
2024/01/21 06:14:20;;;;;;;12.15;10.23;;;;;;;;;;5024162;28;20040;-59
2024/01/21 06:16:47;;;;;;;11.90;10.50;;;;;;;;;;5026031;28;20033;-53
2024/01/21 06:19:13;;;;;;;12.20;10.32;;;;;;;;;;5023414;28;20081;-55
2024/01/21 06:21:44;;;;;;;12.73;9.90;;;;;;;;;;5026544;28;20022;-59
2024/01/21 06:24:11;;;;;;;11.68;10.32;;;;;;;;;;5026492;28;20018;-55
2024/01/21 06:26:40;;;;;;;13.35;9.90;;;;;;;;;;5025904;28;20033;-53
2024/01/21 06:29:09;;;;;;;11.90;9.70;;;;;;;;;;5017388;28;20038;-57
2024/01/21 06:31:36;;;;;;;11.65;10.15;;;;;;;;;;5006629;28;20038;-61
2024/01/21 06:34:02;;;;;;;12.02;9.80;;;;;;;;;;5006211;28;20018;-56
2024/01/21 06:36:29;;;;;;;13.60;9.57;;;;;;;;;;5005980;28;20018;-56
2024/01/21 06:38:56;;;;;;;13.30;9.45;;;;;;;;;;5006331;28;20053;-54
2024/01/21 06:41:22;;;;;;;11.20;9.45;;;;;;;;;;5006213;28;20085;-54
2024/01/21 06:43:49;;;;;;;13.98;9.32;;;;;;;;;;5006210;28;20030;-56
2024/01/21 06:46:17;;;;;;;10.50;9.32;;;;;;;;;;5017190;28;20025;-55
2024/01/21 06:48:44;;;;;;;9.98;8.98;;;;;;;;;;5005992;28;20033;-59
2024/01/21 06:51:19;;;;;;;11.38;9.07;;;;;;;;;;5006145;28;20198;-57
2024/01/21 06:53:46;;;;;;;12.30;9.45;;;;;;;;;;5006123;28;20082;-56
2024/01/21 06:56:13;;;;;;;12.07;8.93;;;;;;;;;;5005832;28;20073;-57
2024/01/21 06:58:39;;;;;;;11.65;9.07;;;;;;;;;;5009064;28;20032;-59
2024/01/21 07:01:06;;;;;;;9.77;8.82;;;;;;;;;;5014499;28;20029;-60
2024/01/21 07:03:32;;;;;;;10.90;8.75;;;;;;;;;;5005707;28;20037;-56
2024/01/21 07:05:59;;;;;;;12.10;9.52;;;;;;;;;;5005864;28;20018;-53
2024/01/21 07:08:26;;;;;;;10.80;8.70;;;;;;;;;;5005834;28;20034;-57
2024/01/21 07:10:52;;;;;;;10.77;8.40;;;;;;;;;;5005214;28;20034;-57
2024/01/21 07:13:19;;;;;;;11.13;9.18;;;;;;;;;;5005739;28;20030;-57
2024/01/21 07:15:46;;;;;;;11.48;9.00;;;;;;;;;;5005709;28;20065;-57
2024/01/21 07:18:12;;;;;;;10.77;8.55;;;;;;;;;;5005939;28;20310;-56
2024/01/21 07:20:39;;;;;;;9.48;8.38;;;;;;;;;;5005622;28;20038;-56
2024/01/21 07:23:06;;;;;;;11.70;9.10;;;;;;;;;;5005929;28;20081;-56
2024/01/21 07:25:32;;;;;;;9.90;8.38;;;;;;;;;;5005249;28;20030;-57
2024/01/21 07:27:59;;;;;;;11.82;8.13;;;;;;;;;;5005896;28;20133;-59
2024/01/21 07:30:25;;;;;;;10.55;8.45;;;;;;;;;;5005219;28;20034;-58
2024/01/21 07:32:52;;;;;;;11.20;8.20;;;;;;;;;;5005632;28;20014;-55
2024/01/21 07:35:18;;;;;;;10.25;8.40;;;;;;;;;;5005214;28;20096;-55
2024/01/21 07:37:46;;;;;;;9.93;8.15;;;;;;;;;;5005663;28;20014;-54
2024/01/21 07:40:13;;;;;;;10.45;7.38;;;;;;;;;;5005144;28;20037;-55
2024/01/21 07:42:40;;;;;;;8.45;7.25;;;;;;;;;;5005579;28;20022;-62
2024/01/21 07:45:06;;;;;;;11.13;7.97;;;;;;;;;;5005088;28;20353;-58
2024/01/21 07:47:33;;;;;;;8.68;7.68;;;;;;;;;;5004477;28;20094;-61
2024/01/21 07:50:00;;;;;;;9.02;7.22;;;;;;;;;;5004939;28;20093;-56
2024/01/21 07:52:26;;;;;;;10.80;7.55;;;;;;;;;;5005299;28;20010;-57
2024/01/21 07:54:53;;;;;;;10.93;8.13;;;;;;;;;;5004992;28;20329;-57
2024/01/21 07:57:19;;;;;;;10.07;7.68;;;;;;;;;;5005169;28;20202;-55
2024/01/21 07:59:46;;;;;;;9.55;7.93;;;;;;;;;;5004862;28;20072;-55
2024/01/21 08:02:13;;;;;;;9.82;7.45;;;;;;;;;;5005108;28;20018;-58
2024/01/21 08:04:39;;;;;;;9.48;7.50;;;;;;;;;;5004623;28;20053;-55
2024/01/21 08:07:06;;;;;;;9.80;7.78;;;;;;;;;;5004974;28;20025;-56
2024/01/21 08:09:32;;;;;;;10.20;7.57;;;;;;;;;;5004698;28;20077;-55
2024/01/21 08:11:59;;;;;;;12.27;8.15;;;;;;;;;;5004572;28;20326;-56
2024/01/21 08:14:25;;;;;;;10.55;7.78;;;;;;;;;;5004724;28;20030;-55
2024/01/21 08:16:52;;;;;;;9.20;7.32;;;;;;;;;;5004732;28;20026;-57
2024/01/21 08:19:20;;;;;;;12.93;7.60;;;;;;;;;;5004727;28;20025;-54
2024/01/21 08:21:49;;;;;;;9.07;7.15;;;;;;;;;;5004694;28;20049;-59
2024/01/21 08:24:16;;;;;;;10.20;7.50;;;;;;;;;;5004572;28;20129;-56
2024/01/21 08:26:42;;;;;;;13.73;7.95;;;;;;;;;;5004508;28;20030;-59
2024/01/21 08:29:09;;;;;;;10.48;7.53;;;;;;;;;;5004483;28;20026;-60
2024/01/21 08:31:42;;;;;;;9.70;7.45;;;;;;;;;;5004271;28;20050;-58
2024/01/21 08:34:09;;;;;;;10.57;7.03;;;;;;;;;;5004249;28;20109;-59
2024/01/21 08:36:35;;;;;;;8.90;7.68;;;;;;;;;;5004495;28;20050;-57
2024/01/21 08:39:05;;;;;;;9.93;7.45;;;;;;;;;;5004463;28;20022;-58
2024/01/21 08:41:35;;;;;;;9.40;7.30;;;;;;;;;;5004341;28;20030;-57
2024/01/21 08:44:02;;;;;;;10.00;7.00;;;;;;;;;;5004309;28;20030;-56
2024/01/21 08:46:28;;;;;;;9.40;7.18;;;;;;;;;;5004428;28;20304;-55
2024/01/21 08:48:55;;;;;;;8.65;7.50;;;;;;;;;;5004189;28;20258;-55
2024/01/21 08:51:22;;;;;;;9.90;7.50;;;;;;;;;;5004249;28;20026;-56
2024/01/21 08:53:55;;;;;;;10.40;7.32;;;;;;;;;;5004276;28;20320;-54
2024/01/21 08:56:23;;;;;;;8.93;7.18;;;;;;;;;;5004343;28;20045;-55
2024/01/21 08:58:50;;;;;;;9.18;7.07;;;;;;;;;;5004333;28;20026;-56
2024/01/21 09:01:17;;;;;;;10.82;6.53;;;;;;;;;;5023200;28;20030;-59
2024/01/21 09:03:44;;;;;;;8.98;6.70;;;;;;;;;;5008188;28;20046;-56
2024/01/21 09:06:11;;;;;;;9.07;7.65;;;;;;;;;;5008115;28;20088;-56
2024/01/21 09:08:37;;;;;;;8.25;6.90;;;;;;;;;;5007918;28;20195;-54
2024/01/21 09:11:06;;;;;;;10.38;7.20;;;;;;;;;;5007666;28;20066;-62
2024/01/21 09:13:33;;;;;;;8.40;6.97;;;;;;;;;;5007945;28;20222;-57
2024/01/21 09:16:00;;;;;;;8.73;6.90;;;;;;;;;;5007705;28;20015;-56
2024/01/21 09:18:26;;;;;;;8.85;6.45;;;;;;;;;;5007809;28;20045;-56
2024/01/21 09:20:53;;;;;;;10.20;6.45;;;;;;;;;;5007785;28;20018;-55
2024/01/21 09:23:19;;;;;;;7.97;6.47;;;;;;;;;;5007879;28;20034;-56
2024/01/21 09:25:46;;;;;;;7.72;6.43;;;;;;;;;;5007575;28;20049;-57
2024/01/21 09:28:12;;;;;;;8.45;6.10;;;;;;;;;;5008099;28;20026;-56
2024/01/21 09:30:40;;;;;;;7.05;6.25;;;;;;;;;;5007554;28;20026;-55
2024/01/21 09:33:06;;;;;;;8.15;6.43;;;;;;;;;;5007897;28;20158;-55
2024/01/21 09:35:33;;;;;;;8.18;6.70;;;;;;;;;;5007569;28;20258;-56
2024/01/21 09:37:59;;;;;;;7.65;6.50;;;;;;;;;;5008046;28;20045;-53
2024/01/21 09:40:26;;;;;;;10.10;6.60;;;;;;;;;;5007361;28;20050;-55
2024/01/21 09:42:53;;;;;;;7.75;5.90;;;;;;;;;;5007797;28;20022;-56
2024/01/21 09:45:20;;;;;;;8.38;6.88;;;;;;;;;;5007759;28;20034;-55
2024/01/21 09:47:48;;;;;;;9.15;6.70;;;;;;;;;;5007582;28;20025;-57
2024/01/21 09:50:15;;;;;;;9.45;6.15;;;;;;;;;;5007148;28;20034;-57
2024/01/21 09:52:42;;;;;;;9.52;6.03;;;;;;;;;;5007564;28;20021;-53
2024/01/21 09:55:08;;;;;;;7.82;5.85;;;;;;;;;;5007069;28;20027;-53
2024/01/21 09:57:36;;;;;;;9.48;6.05;;;;;;;;;;5013021;28;20093;-55
2024/01/21 10:00:03;;;;;;;8.95;6.50;;;;;;;;;;5013005;28;20041;-56
2024/01/21 10:02:30;;;;;;;15.85;14.27;;;;;;;;;;5007145;28;20026;-54
2024/01/21 10:04:57;;;;;;;22.35;19.50;;;;;;;;;;5006980;28;20073;-52
2024/01/21 10:07:24;;;;;;;18.90;16.88;;;;;;;;;;5007254;28;20045;-56
2024/01/21 10:09:55;;;;;;;15.57;12.90;;;;;;;;;;5006437;28;20026;-56
2024/01/21 10:12:25;;;;;;;19.23;12.18;;;;;;;;;;5006157;28;20029;-53
2024/01/21 10:14:53;;;;;;;14.48;10.15;;;;;;;;;;5006733;28;20019;-54
2024/01/21 10:17:26;;;;;;;16.15;9.60;;;;;;;;;;5006829;28;20018;-57
2024/01/21 10:19:55;;;;;;;13.73;8.52;;;;;;;;;;5006712;28;20030;-57
2024/01/21 10:22:25;;;;;;;18.83;8.65;;;;;;;;;;5006773;28;20026;-57
2024/01/21 10:24:52;;;;;;;12.68;8.07;;;;;;;;;;5006617;28;20033;-55
2024/01/21 10:27:19;;;;;;;10.68;7.40;;;;;;;;;;5006791;28;20022;-57
2024/01/21 10:29:46;;;;;;;12.20;7.55;;;;;;;;;;5006287;28;20064;-57
2024/01/21 10:32:14;;;;;;;12.48;7.32;;;;;;;;;;5006797;28;20022;-56
2024/01/21 10:34:45;;;;;;;9.43;7.25;;;;;;;;;;5006386;28;20046;-55
2024/01/21 10:37:17;;;;;;;10.60;6.65;;;;;;;;;;5006419;28;20031;-57
2024/01/21 10:39:47;;;;;;;10.45;6.53;;;;;;;;;;5006320;28;20100;-59
2024/01/21 10:42:14;;;;;;;10.15;6.75;;;;;;;;;;5006547;28;20023;-60
2024/01/21 10:44:41;;;;;;;8.07;6.22;;;;;;;;;;5009071;28;20017;-58
2024/01/21 10:47:09;;;;;;;9.43;6.82;;;;;;;;;;5025980;28;20093;-56
2024/01/21 10:49:36;;;;;;;12.82;6.63;;;;;;;;;;5025728;28;20045;-58
2024/01/21 10:52:03;;;;;;;9.35;6.10;;;;;;;;;;5025735;28;20026;-60
2024/01/21 10:54:30;;;;;;;10.38;6.38;;;;;;;;;;5023950;28;20326;-58
2024/01/21 10:56:57;;;;;;;8.30;6.00;;;;;;;;;;5025842;28;20132;-57
2024/01/21 10:59:24;;;;;;;9.55;6.18;;;;;;;;;;5025515;28;20341;-61
2024/01/21 11:01:51;;;;;;;13.18;6.93;;;;;;;;;;5025428;28;20313;-59
2024/01/21 11:04:17;;;;;;;12.82;6.50;;;;;;;;;;5025536;28;20033;-58
2024/01/21 11:06:48;;;;;;;9.68;6.00;;;;;;;;;;5025480;28;20037;-58
2024/01/21 11:09:21;;;;;;;13.95;6.60;;;;;;;;;;5025201;28;20258;-60
2024/01/21 11:11:49;;;;;;;13.80;6.40;;;;;;;;;;5025107;28;20050;-57
2024/01/21 11:14:34;;;;;;;15.52;6.28;;;;;;;;;;5025285;28;20050;-59
2024/01/21 11:17:02;;;;;;;16.20;6.78;;;;;;;;;;5025363;28;20023;-58
2024/01/21 11:19:39;;;;;;;17.85;6.22;;;;;;;;;;5025134;28;20041;-62
2024/01/21 11:22:05;;;;;;;12.63;6.43;;;;;;;;;;5025216;28;20030;-58
2024/01/21 11:24:32;;;;;;;9.57;6.22;;;;;;;;;;5024959;28;20030;-57
2024/01/21 11:26:59;;;;;;;11.52;6.03;;;;;;;;;;5025213;28;20212;-59
2024/01/21 11:29:29;;;;;;;9.57;5.85;;;;;;;;;;5025104;28;20022;-57
2024/01/21 11:32:08;;;;;;;8.95;6.22;;;;;;;;;;5024965;28;20029;-59
2024/01/21 11:34:39;;;;;;;8.73;5.57;;;;;;;;;;5025083;28;20026;-59
2024/01/21 11:37:06;;;;;;;8.85;5.60;;;;;;;;;;5025013;28;20077;-57
2024/01/21 11:39:33;;;;;;;10.50;5.65;;;;;;;;;;5024839;28;20022;-56
2024/01/21 11:41:59;;;;;;;9.23;5.80;;;;;;;;;;5025074;28;20210;-55
2024/01/21 11:44:27;;;;;;;10.70;5.88;;;;;;;;;;5024634;28;20049;-54
2024/01/21 11:46:54;;;;;;;9.18;5.60;;;;;;;;;;5024574;28;20093;-54
2024/01/21 11:49:21;;;;;;;7.40;5.25;;;;;;;;;;5024765;28;20317;-55
2024/01/21 11:51:48;;;;;;;11.50;5.68;;;;;;;;;;5024159;28;20041;-55
2024/01/21 11:54:19;;;;;;;14.63;6.25;;;;;;;;;;5013337;28;20029;-55
2024/01/21 11:56:46;;;;;;;10.07;5.35;;;;;;;;;;5018622;28;20048;-56
2024/01/21 11:59:13;;;;;;;13.95;5.97;;;;;;;;;;5012275;28;20073;-55
2024/01/21 12:01:40;;;;;;;9.00;5.50;;;;;;;;;;5005028;28;20026;-57
2024/01/21 12:04:08;;;;;;;10.30;5.18;;;;;;;;;;5005076;28;20092;-57
2024/01/21 12:06:37;;;;;;;8.48;5.15;;;;;;;;;;5004833;28;20069;-56
2024/01/21 12:09:03;;;;;;;8.50;5.38;;;;;;;;;;5004678;28;20029;-58
2024/01/21 12:11:33;;;;;;;8.98;4.90;;;;;;;;;;5004669;28;20226;-56
2024/01/21 12:14:00;;;;;;;12.35;5.22;;;;;;;;;;5004540;28;20085;-59
2024/01/21 12:16:27;;;;;;;11.15;5.43;;;;;;;;;;5004859;28;20052;-60
2024/01/21 12:18:54;;;;;;;15.15;5.03;;;;;;;;;;5004606;28;20022;-57
2024/01/21 12:21:23;;;;;;;13.88;5.45;;;;;;;;;;5004541;28;20056;-56
2024/01/21 12:23:54;;;;;;;12.20;5.53;;;;;;;;;;5004531;28;20097;-62
2024/01/21 12:26:24;;;;;;;10.45;5.35;;;;;;;;;;5004615;28;20030;-56
2024/01/21 12:28:55;;;;;;;13.20;5.55;;;;;;;;;;5004284;28;20033;-56
2024/01/21 12:31:22;;;;;;;9.15;5.25;;;;;;;;;;5004422;28;20026;-59
2024/01/21 12:33:49;;;;;;;9.60;5.70;;;;;;;;;;5003928;28;20023;-58
2024/01/21 12:36:16;;;;;;;12.30;5.53;;;;;;;;;;5004338;28;20018;-55
2024/01/21 12:38:42;;;;;;;10.30;5.57;;;;;;;;;;5012889;28;20026;-53
2024/01/21 12:41:09;;;;;;;9.98;4.97;;;;;;;;;;5024052;28;20089;-55
2024/01/21 12:43:35;;;;;;;9.73;5.95;;;;;;;;;;5023866;28;20033;-56
2024/01/21 12:46:03;;;;;;;12.48;5.70;;;;;;;;;;5023961;28;20018;-57
2024/01/21 12:48:30;;;;;;;11.52;5.90;;;;;;;;;;5024187;28;20041;-57
2024/01/21 12:50:57;;;;;;;15.38;6.07;;;;;;;;;;5022469;28;20089;-58
2024/01/21 12:53:23;;;;;;;10.23;6.15;;;;;;;;;;5024002;28;20026;-60
2024/01/21 12:55:50;;;;;;;8.15;6.00;;;;;;;;;;5023889;28;20045;-59
2024/01/21 12:58:16;;;;;;;12.23;6.40;;;;;;;;;;5023761;28;20270;-58
2024/01/21 13:00:43;;;;;;;10.98;6.43;;;;;;;;;;5023979;28;20179;-59
2024/01/21 13:03:09;;;;;;;11.30;7.25;;;;;;;;;;5024289;28;20049;-59
2024/01/21 13:05:36;;;;;;;11.52;6.70;;;;;;;;;;5023741;28;20018;-57
2024/01/21 13:08:03;;;;;;;10.27;7.28;;;;;;;;;;5024181;28;20025;-58
2024/01/21 13:10:30;;;;;;;8.05;7.00;;;;;;;;;;5017436;28;20322;-54
2024/01/21 13:12:57;;;;;;;9.43;7.50;;;;;;;;;;5005928;28;20034;-54
2024/01/21 13:15:23;;;;;;;9.05;7.57;;;;;;;;;;5004047;28;20018;-54
2024/01/21 13:17:50;;;;;;;9.93;7.70;;;;;;;;;;5004466;28;20026;-54
2024/01/21 13:20:17;;;;;;;10.55;8.10;;;;;;;;;;5011711;28;20041;-55
2024/01/21 13:22:46;;;;;;;8.70;7.53;;;;;;;;;;5007702;28;20022;-58
2024/01/21 13:25:13;;;;;;;8.65;7.75;;;;;;;;;;5004154;28;20030;-53
2024/01/21 13:27:44;;;;;;;8.57;7.53;;;;;;;;;;5004237;28;20237;-55
2024/01/21 13:32:56;;;;;;;10.63;8.65;;;;;;;;;;5004316;28;20293;-58
2024/01/21 13:35:23;;;;;;;9.02;8.20;;;;;;;;;;5004006;28;20022;-56
2024/01/21 13:37:49;;;;;;;11.65;9.10;;;;;;;;;;5004253;28;20022;-56
2024/01/21 13:40:16;;;;;;;11.48;8.82;;;;;;;;;;5003931;28;20102;-55
2024/01/21 13:42:43;;;;;;;10.90;8.98;;;;;;;;;;5004198;28;20026;-53
2024/01/21 13:45:09;;;;;;;10.02;8.52;;;;;;;;;;5008891;28;20026;-57
2024/01/21 13:47:36;;;;;;;10.45;9.32;;;;;;;;;;5026051;28;20026;-56
2024/01/21 13:50:03;;;;;;;11.50;9.68;;;;;;;;;;5026680;28;20045;-57
2024/01/21 13:52:30;;;;;;;10.82;9.18;;;;;;;;;;5027173;28;20032;-55
2024/01/21 13:54:57;;;;;;;11.23;10.07;;;;;;;;;;5026613;28;20022;-55
2024/01/21 13:57:24;;;;;;;11.38;9.30;;;;;;;;;;5027030;28;20026;-56
2024/01/21 13:59:50;;;;;;;12.23;9.38;;;;;;;;;;5026675;28;20065;-60
2024/01/21 14:02:17;;;;;;;11.02;9.38;;;;;;;;;;5026792;28;20052;-57
2024/01/21 14:04:43;;;;;;;9.95;8.95;;;;;;;;;;5026768;28;20231;-59
2024/01/21 14:07:10;;;;;;;9.60;8.65;;;;;;;;;;5026920;28;20042;-56
2024/01/21 14:09:37;;;;;;;10.27;9.10;;;;;;;;;;5026285;28;20077;-61
2024/01/21 14:12:03;;;;;;;10.68;9.65;;;;;;;;;;5026549;28;20068;-56
2024/01/21 14:14:30;;;;;;;10.50;9.30;;;;;;;;;;5026439;28;20083;-59
2024/01/21 14:16:57;;;;;;;15.18;9.65;;;;;;;;;;5026267;28;20341;-55
2024/01/21 14:19:23;;;;;;;12.40;9.88;;;;;;;;;;5022026;28;20231;-58
2024/01/21 14:21:50;;;;;;;10.93;9.50;;;;;;;;;;5023705;28;20077;-52
2024/01/21 14:24:16;;;;;;;12.73;10.32;;;;;;;;;;5025987;28;20029;-56
2024/01/21 14:26:44;;;;;;;12.15;9.80;;;;;;;;;;5024173;28;20310;-54
2024/01/21 14:29:34;;;;;;;12.45;10.00;;;;;;;;;;5023087;28;20022;-58
2024/01/21 14:32:00;;;;;;;15.20;9.80;;;;;;;;;;5015640;28;20046;-55
2024/01/21 14:34:27;;;;;;;11.73;10.50;;;;;;;;;;5024920;28;20025;-57